XS11 weather

Idlewild Airport
Medina, Texas, United States

Public forecast

Using degrees Fahrenheit for public forecast. Weather courtesy of forecast.io.

Closest aviation weather report (METAR) to Idlewild Airport

Closest report is Kerrville Municipal Louis Schreiner Field, 18.6 nm (34.5 km) NE. Retrieved 2019/10/17 10:35 UTC (0 seconds ago):

KERV 171035Z AUTO 00000KT 10SM BKN120 11/05 A3007 RMK AO2 T01130050

Closest aviation forecast (TAF) to Idlewild Airport

Closest forecast is Lackland Air Force Base, 47.0 nm (87.0 km) ESE. Retrieved 2019/10/17 10:17 UTC (0 seconds ago):

TAF KSKF 171000Z 1710/1816 VRB06KT 9999 BKN100 BKN220 QNH2995INS BECMG 1721/1722 06009KT 9999 FEW120 SCT250 QNH2990INS BECMG 1802/1803 VRB06KT 9999 SKC QNH2995INS TX24/1721Z TN15/1712Z